sensor_id;sensor_type;location;lat;lon;timestamp;P1;durP1;ratioP1;P2;durP2;ratioP2
68168;SDS011;54981;50.206;15.978;2022-08-19T00:01:33;9.15;;;4.35;;
68168;SDS011;54981;50.206;15.978;2022-08-19T00:04:01;6.82;;;3.92;;
68168;SDS011;54981;50.206;15.978;2022-08-19T00:06:30;9.73;;;4.20;;
68168;SDS011;54981;50.206;15.978;2022-08-19T00:08:56;10.43;;;4.63;;
68168;SDS011;54981;50.206;15.978;2022-08-19T00:11:22;9.95;;;4.45;;
68168;SDS011;54981;50.206;15.978;2022-08-19T00:13:49;6.00;;;4.10;;
68168;SDS011;54981;50.206;15.978;2022-08-19T00:16:15;8.75;;;4.20;;
68168;SDS011;54981;50.206;15.978;2022-08-19T00:18:43;8.48;;;4.43;;
68168;SDS011;54981;50.206;15.978;2022-08-19T00:21:08;8.50;;;4.68;;
68168;SDS011;54981;50.206;15.978;2022-08-19T00:23:34;9.35;;;4.43;;
68168;SDS011;54981;50.206;15.978;2022-08-19T00:26:01;9.85;;;4.55;;
68168;SDS011;54981;50.206;15.978;2022-08-19T00:28:28;6.65;;;4.40;;
68168;SDS011;54981;50.206;15.978;2022-08-19T00:30:53;9.65;;;4.60;;
68168;SDS011;54981;50.206;15.978;2022-08-19T00:33:19;13.35;;;4.63;;
68168;SDS011;54981;50.206;15.978;2022-08-19T00:35:44;10.88;;;4.72;;
68168;SDS011;54981;50.206;15.978;2022-08-19T00:38:09;8.98;;;4.75;;
68168;SDS011;54981;50.206;15.978;2022-08-19T00:40:35;6.70;;;5.07;;
68168;SDS011;54981;50.206;15.978;2022-08-19T00:43:00;9.40;;;5.90;;
68168;SDS011;54981;50.206;15.978;2022-08-19T00:45:26;11.57;;;5.40;;
68168;SDS011;54981;50.206;15.978;2022-08-19T00:47:55;8.20;;;4.55;;
68168;SDS011;54981;50.206;15.978;2022-08-19T00:50:21;10.40;;;4.93;;
68168;SDS011;54981;50.206;15.978;2022-08-19T00:52:49;6.18;;;5.05;;
68168;SDS011;54981;50.206;15.978;2022-08-19T00:55:16;10.10;;;4.65;;
68168;SDS011;54981;50.206;15.978;2022-08-19T00:57:46;10.48;;;5.65;;
68168;SDS011;54981;50.206;15.978;2022-08-19T01:00:16;13.23;;;5.18;;
68168;SDS011;54981;50.206;15.978;2022-08-19T01:02:43;10.13;;;4.80;;
68168;SDS011;54981;50.206;15.978;2022-08-19T01:05:09;8.25;;;5.78;;
68168;SDS011;54981;50.206;15.978;2022-08-19T01:07:38;8.93;;;6.18;;
68168;SDS011;54981;50.206;15.978;2022-08-19T01:10:05;12.07;;;5.72;;
68168;SDS011;54981;50.206;15.978;2022-08-19T01:12:33;8.88;;;5.32;;
68168;SDS011;54981;50.206;15.978;2022-08-19T01:14:59;8.25;;;5.75;;
68168;SDS011;54981;50.206;15.978;2022-08-19T01:17:25;7.75;;;5.32;;
68168;SDS011;54981;50.206;15.978;2022-08-19T01:19:50;10.80;;;5.72;;
68168;SDS011;54981;50.206;15.978;2022-08-19T01:24:48;7.30;;;5.20;;
68168;SDS011;54981;50.206;15.978;2022-08-19T01:27:14;9.57;;;4.68;;
68168;SDS011;54981;50.206;15.978;2022-08-19T01:29:40;6.50;;;4.82;;
68168;SDS011;54981;50.206;15.978;2022-08-19T01:32:09;9.10;;;4.40;;
68168;SDS011;54981;50.206;15.978;2022-08-19T01:34:37;7.38;;;4.55;;
68168;SDS011;54981;50.206;15.978;2022-08-19T01:37:07;6.80;;;5.00;;
68168;SDS011;54981;50.206;15.978;2022-08-19T01:39:36;7.00;;;5.35;;
68168;SDS011;54981;50.206;15.978;2022-08-19T01:42:03;6.68;;;4.70;;
68168;SDS011;54981;50.206;15.978;2022-08-19T01:44:29;8.38;;;4.93;;
68168;SDS011;54981;50.206;15.978;2022-08-19T01:46:54;11.52;;;5.13;;
68168;SDS011;54981;50.206;15.978;2022-08-19T01:49:21;6.57;;;4.30;;
68168;SDS011;54981;50.206;15.978;2022-08-19T01:51:48;6.70;;;4.55;;
68168;SDS011;54981;50.206;15.978;2022-08-19T01:54:15;9.38;;;4.60;;
68168;SDS011;54981;50.206;15.978;2022-08-19T01:56:41;6.43;;;4.70;;
68168;SDS011;54981;50.206;15.978;2022-08-19T01:59:08;7.13;;;4.88;;
68168;SDS011;54981;50.206;15.978;2022-08-19T02:01:37;8.30;;;5.00;;
68168;SDS011;54981;50.206;15.978;2022-08-19T02:04:02;5.93;;;4.72;;
68168;SDS011;54981;50.206;15.978;2022-08-19T02:06:27;8.35;;;5.38;;
68168;SDS011;54981;50.206;15.978;2022-08-19T02:08:53;8.90;;;6.07;;
68168;SDS011;54981;50.206;15.978;2022-08-19T02:11:20;8.43;;;4.97;;
68168;SDS011;54981;50.206;15.978;2022-08-19T02:13:47;7.53;;;5.60;;
68168;SDS011;54981;50.206;15.978;2022-08-19T02:16:14;7.40;;;4.97;;
68168;SDS011;54981;50.206;15.978;2022-08-19T02:18:40;9.10;;;4.85;;
68168;SDS011;54981;50.206;15.978;2022-08-19T02:21:05;8.75;;;4.90;;
68168;SDS011;54981;50.206;15.978;2022-08-19T02:23:31;9.32;;;4.65;;
68168;SDS011;54981;50.206;15.978;2022-08-19T02:25:56;7.75;;;5.20;;
68168;SDS011;54981;50.206;15.978;2022-08-19T02:28:21;7.65;;;5.32;;
68168;SDS011;54981;50.206;15.978;2022-08-19T02:30:47;9.25;;;5.85;;
68168;SDS011;54981;50.206;15.978;2022-08-19T02:33:13;8.95;;;5.03;;
68168;SDS011;54981;50.206;15.978;2022-08-19T02:35:41;6.40;;;5.10;;
68168;SDS011;54981;50.206;15.978;2022-08-19T02:38:10;7.82;;;5.18;;
68168;SDS011;54981;50.206;15.978;2022-08-19T02:40:52;10.32;;;5.50;;
68168;SDS011;54981;50.206;15.978;2022-08-19T02:43:23;9.88;;;5.32;;
68168;SDS011;54981;50.206;15.978;2022-08-19T02:45:50;8.80;;;5.38;;
68168;SDS011;54981;50.206;15.978;2022-08-19T02:48:20;8.20;;;6.05;;
68168;SDS011;54981;50.206;15.978;2022-08-19T02:50:46;8.68;;;5.63;;
68168;SDS011;54981;50.206;15.978;2022-08-19T02:53:12;7.10;;;5.85;;
68168;SDS011;54981;50.206;15.978;2022-08-19T02:55:45;8.75;;;5.60;;
68168;SDS011;54981;50.206;15.978;2022-08-19T02:58:11;7.68;;;6.38;;
68168;SDS011;54981;50.206;15.978;2022-08-19T03:00:44;9.15;;;7.10;;
68168;SDS011;54981;50.206;15.978;2022-08-19T03:03:12;12.35;;;7.47;;
68168;SDS011;54981;50.206;15.978;2022-08-19T03:05:38;9.77;;;6.90;;
68168;SDS011;54981;50.206;15.978;2022-08-19T03:08:04;13.57;;;7.50;;
68168;SDS011;54981;50.206;15.978;2022-08-19T03:10:30;10.82;;;7.03;;
68168;SDS011;54981;50.206;15.978;2022-08-19T03:12:57;11.77;;;7.65;;
68168;SDS011;54981;50.206;15.978;2022-08-19T03:15:22;9.70;;;6.75;;
68168;SDS011;54981;50.206;15.978;2022-08-19T03:17:47;11.50;;;7.50;;
68168;SDS011;54981;50.206;15.978;2022-08-19T03:20:13;8.45;;;7.15;;
68168;SDS011;54981;50.206;15.978;2022-08-19T03:22:38;12.80;;;6.68;;
68168;SDS011;54981;50.206;15.978;2022-08-19T03:25:03;9.30;;;6.90;;
68168;SDS011;54981;50.206;15.978;2022-08-19T03:27:29;9.25;;;7.30;;
68168;SDS011;54981;50.206;15.978;2022-08-19T03:29:54;12.80;;;7.82;;
68168;SDS011;54981;50.206;15.978;2022-08-19T03:32:20;13.48;;;7.22;;
68168;SDS011;54981;50.206;15.978;2022-08-19T03:34:46;9.60;;;6.78;;
68168;SDS011;54981;50.206;15.978;2022-08-19T03:37:13;11.02;;;7.05;;
68168;SDS011;54981;50.206;15.978;2022-08-19T03:39:39;9.65;;;7.03;;
68168;SDS011;54981;50.206;15.978;2022-08-19T03:42:06;10.90;;;7.28;;
68168;SDS011;54981;50.206;15.978;2022-08-19T03:44:31;11.07;;;7.53;;
68168;SDS011;54981;50.206;15.978;2022-08-19T03:46:58;11.15;;;7.63;;
68168;SDS011;54981;50.206;15.978;2022-08-19T03:49:25;12.27;;;7.18;;
68168;SDS011;54981;50.206;15.978;2022-08-19T03:51:54;9.15;;;6.85;;
68168;SDS011;54981;50.206;15.978;2022-08-19T03:54:21;15.07;;;7.60;;
68168;SDS011;54981;50.206;15.978;2022-08-19T03:56:48;8.35;;;7.25;;
68168;SDS011;54981;50.206;15.978;2022-08-19T03:59:16;8.48;;;7.43;;
68168;SDS011;54981;50.206;15.978;2022-08-19T04:01:50;7.72;;;5.68;;
68168;SDS011;54981;50.206;15.978;2022-08-19T04:04:18;10.90;;;5.95;;
68168;SDS011;54981;50.206;15.978;2022-08-19T04:06:43;5.82;;;4.60;;
68168;SDS011;54981;50.206;15.978;2022-08-19T04:09:10;14.43;;;5.78;;
68168;SDS011;54981;50.206;15.978;2022-08-19T04:11:37;8.80;;;5.40;;
68168;SDS011;54981;50.206;15.978;2022-08-19T04:14:07;6.88;;;5.30;;
68168;SDS011;54981;50.206;15.978;2022-08-19T04:16:33;7.78;;;5.32;;
68168;SDS011;54981;50.206;15.978;2022-08-19T04:19:02;6.28;;;5.53;;
68168;SDS011;54981;50.206;15.978;2022-08-19T04:21:29;8.07;;;5.45;;
68168;SDS011;54981;50.206;15.978;2022-08-19T04:23:55;9.80;;;6.13;;
68168;SDS011;54981;50.206;15.978;2022-08-19T04:26:23;7.75;;;6.13;;
68168;SDS011;54981;50.206;15.978;2022-08-19T04:28:53;8.57;;;6.05;;
68168;SDS011;54981;50.206;15.978;2022-08-19T04:31:24;7.43;;;5.40;;
68168;SDS011;54981;50.206;15.978;2022-08-19T04:33:57;8.80;;;5.68;;
68168;SDS011;54981;50.206;15.978;2022-08-19T04:36:28;7.10;;;5.38;;
68168;SDS011;54981;50.206;15.978;2022-08-19T04:38:56;8.13;;;5.85;;
68168;SDS011;54981;50.206;15.978;2022-08-19T04:41:23;7.75;;;5.97;;
68168;SDS011;54981;50.206;15.978;2022-08-19T04:44:09;8.68;;;6.13;;
68168;SDS011;54981;50.206;15.978;2022-08-19T04:46:36;7.90;;;6.32;;
68168;SDS011;54981;50.206;15.978;2022-08-19T04:49:02;11.80;;;6.18;;
68168;SDS011;54981;50.206;15.978;2022-08-19T04:51:30;7.32;;;5.25;;
68168;SDS011;54981;50.206;15.978;2022-08-19T04:53:56;9.23;;;6.22;;
68168;SDS011;54981;50.206;15.978;2022-08-19T04:56:22;7.95;;;6.28;;
68168;SDS011;54981;50.206;15.978;2022-08-19T04:58:51;8.70;;;5.90;;
68168;SDS011;54981;50.206;15.978;2022-08-19T05:01:20;9.05;;;6.53;;
68168;SDS011;54981;50.206;15.978;2022-08-19T05:03:47;9.35;;;5.88;;
68168;SDS011;54981;50.206;15.978;2022-08-19T05:06:14;9.35;;;5.88;;
68168;SDS011;54981;50.206;15.978;2022-08-19T05:08:41;7.93;;;5.53;;
68168;SDS011;54981;50.206;15.978;2022-08-19T05:11:16;8.70;;;6.75;;
68168;SDS011;54981;50.206;15.978;2022-08-19T05:13:44;9.63;;;6.63;;
68168;SDS011;54981;50.206;15.978;2022-08-19T05:16:11;9.70;;;6.40;;
68168;SDS011;54981;50.206;15.978;2022-08-19T05:18:37;9.52;;;6.55;;
68168;SDS011;54981;50.206;15.978;2022-08-19T05:21:22;8.10;;;6.75;;
68168;SDS011;54981;50.206;15.978;2022-08-19T05:24:06;9.20;;;6.43;;
68168;SDS011;54981;50.206;15.978;2022-08-19T05:26:33;7.80;;;5.95;;
68168;SDS011;54981;50.206;15.978;2022-08-19T05:29:03;8.00;;;5.90;;
68168;SDS011;54981;50.206;15.978;2022-08-19T05:31:30;7.55;;;5.10;;
68168;SDS011;54981;50.206;15.978;2022-08-19T05:33:56;8.73;;;6.35;;
68168;SDS011;54981;50.206;15.978;2022-08-19T05:36:24;9.60;;;6.85;;
68168;SDS011;54981;50.206;15.978;2022-08-19T05:38:50;8.48;;;6.43;;
68168;SDS011;54981;50.206;15.978;2022-08-19T05:41:18;8.38;;;6.13;;
68168;SDS011;54981;50.206;15.978;2022-08-19T05:43:44;10.82;;;6.82;;
68168;SDS011;54981;50.206;15.978;2022-08-19T05:46:15;12.02;;;6.60;;
68168;SDS011;54981;50.206;15.978;2022-08-19T05:48:43;8.57;;;6.20;;
68168;SDS011;54981;50.206;15.978;2022-08-19T05:51:08;9.82;;;6.40;;
68168;SDS011;54981;50.206;15.978;2022-08-19T05:53:34;9.18;;;5.18;;
68168;SDS011;54981;50.206;15.978;2022-08-19T05:56:07;6.25;;;4.47;;
68168;SDS011;54981;50.206;15.978;2022-08-19T05:58:35;8.10;;;5.22;;
68168;SDS011;54981;50.206;15.978;2022-08-19T06:01:01;9.45;;;5.20;;
68168;SDS011;54981;50.206;15.978;2022-08-19T06:03:30;6.47;;;5.45;;
68168;SDS011;54981;50.206;15.978;2022-08-19T06:05:56;7.43;;;4.88;;
68168;SDS011;54981;50.206;15.978;2022-08-19T06:08:24;9.15;;;4.88;;
68168;SDS011;54981;50.206;15.978;2022-08-19T06:10:49;7.95;;;4.65;;
68168;SDS011;54981;50.206;15.978;2022-08-19T06:13:14;7.03;;;5.07;;
68168;SDS011;54981;50.206;15.978;2022-08-19T06:15:40;9.77;;;5.47;;
68168;SDS011;54981;50.206;15.978;2022-08-19T06:18:08;6.43;;;4.78;;
68168;SDS011;54981;50.206;15.978;2022-08-19T06:20:34;8.15;;;5.03;;
68168;SDS011;54981;50.206;15.978;2022-08-19T06:22:59;5.75;;;4.47;;
68168;SDS011;54981;50.206;15.978;2022-08-19T06:25:24;8.00;;;4.65;;
68168;SDS011;54981;50.206;15.978;2022-08-19T06:27:50;6.85;;;4.20;;
68168;SDS011;54981;50.206;15.978;2022-08-19T06:30:15;6.88;;;4.63;;
68168;SDS011;54981;50.206;15.978;2022-08-19T06:32:40;7.72;;;4.82;;
68168;SDS011;54981;50.206;15.978;2022-08-19T06:35:06;7.93;;;4.68;;
68168;SDS011;54981;50.206;15.978;2022-08-19T06:37:32;7.28;;;5.13;;
68168;SDS011;54981;50.206;15.978;2022-08-19T06:39:58;6.28;;;4.97;;
68168;SDS011;54981;50.206;15.978;2022-08-19T06:42:23;7.40;;;4.53;;
68168;SDS011;54981;50.206;15.978;2022-08-19T06:44:49;7.45;;;4.70;;
68168;SDS011;54981;50.206;15.978;2022-08-19T06:47:18;6.63;;;4.50;;
68168;SDS011;54981;50.206;15.978;2022-08-19T06:52:56;6.80;;;5.10;;
68168;SDS011;54981;50.206;15.978;2022-08-19T06:55:21;7.15;;;5.10;;
68168;SDS011;54981;50.206;15.978;2022-08-19T07:07:57;7.88;;;5.38;;
68168;SDS011;54981;50.206;15.978;2022-08-19T07:10:23;9.55;;;6.78;;
68168;SDS011;54981;50.206;15.978;2022-08-19T07:22:58;7.60;;;5.15;;
68168;SDS011;54981;50.206;15.978;2022-08-19T07:25:24;9.15;;;5.75;;
68168;SDS011;54981;50.206;15.978;2022-08-19T07:27:49;7.47;;;5.57;;
68168;SDS011;54981;50.206;15.978;2022-08-19T07:30:15;8.32;;;5.53;;
68168;SDS011;54981;50.206;15.978;2022-08-19T07:32:41;8.32;;;5.60;;
68168;SDS011;54981;50.206;15.978;2022-08-19T07:35:08;7.57;;;5.40;;
68168;SDS011;54981;50.206;15.978;2022-08-19T07:37:34;7.10;;;5.82;;
68168;SDS011;54981;50.206;15.978;2022-08-19T07:40:02;6.43;;;4.72;;
68168;SDS011;54981;50.206;15.978;2022-08-19T07:42:29;6.82;;;5.50;;
68168;SDS011;54981;50.206;15.978;2022-08-19T07:44:55;7.05;;;5.35;;
68168;SDS011;54981;50.206;15.978;2022-08-19T07:47:20;7.22;;;4.93;;
68168;SDS011;54981;50.206;15.978;2022-08-19T07:49:45;7.30;;;5.18;;
68168;SDS011;54981;50.206;15.978;2022-08-19T07:52:11;6.55;;;5.28;;
68168;SDS011;54981;50.206;15.978;2022-08-19T07:54:38;8.82;;;5.90;;
68168;SDS011;54981;50.206;15.978;2022-08-19T07:57:04;10.02;;;6.45;;
68168;SDS011;54981;50.206;15.978;2022-08-19T07:59:30;9.77;;;5.68;;
68168;SDS011;54981;50.206;15.978;2022-08-19T08:01:56;10.18;;;6.28;;
68168;SDS011;54981;50.206;15.978;2022-08-19T08:04:24;7.20;;;5.50;;
68168;SDS011;54981;50.206;15.978;2022-08-19T08:07:08;8.43;;;5.57;;
68168;SDS011;54981;50.206;15.978;2022-08-19T08:09:52;7.93;;;5.72;;
68168;SDS011;54981;50.206;15.978;2022-08-19T08:12:20;7.68;;;6.28;;
68168;SDS011;54981;50.206;15.978;2022-08-19T08:14:50;7.85;;;5.25;;
68168;SDS011;54981;50.206;15.978;2022-08-19T08:17:19;7.55;;;5.32;;
68168;SDS011;54981;50.206;15.978;2022-08-19T08:19:47;7.93;;;5.90;;
68168;SDS011;54981;50.206;15.978;2022-08-19T08:22:14;6.65;;;5.03;;
68168;SDS011;54981;50.206;15.978;2022-08-19T08:27:35;8.63;;;4.88;;
68168;SDS011;54981;50.206;15.978;2022-08-19T08:30:08;11.38;;;4.88;;
68168;SDS011;54981;50.206;15.978;2022-08-19T08:32:36;8.57;;;5.55;;
68168;SDS011;54981;50.206;15.978;2022-08-19T08:35:02;9.07;;;5.13;;
68168;SDS011;54981;50.206;15.978;2022-08-19T08:37:29;7.07;;;5.07;;
68168;SDS011;54981;50.206;15.978;2022-08-19T08:39:54;7.80;;;5.18;;
68168;SDS011;54981;50.206;15.978;2022-08-19T08:42:22;6.90;;;5.40;;
68168;SDS011;54981;50.206;15.978;2022-08-19T08:44:59;7.03;;;5.15;;
68168;SDS011;54981;50.206;15.978;2022-08-19T08:47:29;8.85;;;5.38;;
68168;SDS011;54981;50.206;15.978;2022-08-19T08:50:07;7.55;;;5.25;;
68168;SDS011;54981;50.206;15.978;2022-08-19T08:52:41;7.55;;;5.18;;
68168;SDS011;54981;50.206;15.978;2022-08-19T08:55:12;8.38;;;5.50;;
68168;SDS011;54981;50.206;15.978;2022-08-19T08:57:48;7.38;;;5.35;;
68168;SDS011;54981;50.206;15.978;2022-08-19T09:00:25;6.30;;;4.88;;
68168;SDS011;54981;50.206;15.978;2022-08-19T09:02:54;7.05;;;5.03;;
68168;SDS011;54981;50.206;15.978;2022-08-19T09:05:22;8.50;;;5.55;;
68168;SDS011;54981;50.206;15.978;2022-08-19T09:08:02;7.93;;;5.28;;
68168;SDS011;54981;50.206;15.978;2022-08-19T09:10:44;6.63;;;4.65;;
68168;SDS011;54981;50.206;15.978;2022-08-19T09:14:05;6.72;;;4.97;;
68168;SDS011;54981;50.206;15.978;2022-08-19T09:16:22;7.88;;;5.15;;
68168;SDS011;54981;50.206;15.978;2022-08-19T09:18:53;7.30;;;5.00;;
68168;SDS011;54981;50.206;15.978;2022-08-19T09:21:23;8.23;;;5.10;;
68168;SDS011;54981;50.206;15.978;2022-08-19T09:23:50;5.90;;;5.00;;
68168;SDS011;54981;50.206;15.978;2022-08-19T09:26:17;6.80;;;5.15;;
68168;SDS011;54981;50.206;15.978;2022-08-19T09:28:45;6.80;;;4.78;;
68168;SDS011;54981;50.206;15.978;2022-08-19T09:31:16;7.15;;;4.60;;
68168;SDS011;54981;50.206;15.978;2022-08-19T09:33:44;6.70;;;5.35;;
68168;SDS011;54981;50.206;15.978;2022-08-19T09:36:10;7.82;;;5.47;;
68168;SDS011;54981;50.206;15.978;2022-08-19T09:38:37;8.32;;;5.20;;
68168;SDS011;54981;50.206;15.978;2022-08-19T09:41:08;8.27;;;5.45;;
68168;SDS011;54981;50.206;15.978;2022-08-19T09:43:39;7.70;;;5.38;;
68168;SDS011;54981;50.206;15.978;2022-08-19T09:46:06;6.68;;;5.18;;
68168;SDS011;54981;50.206;15.978;2022-08-19T09:48:32;8.05;;;5.68;;
68168;SDS011;54981;50.206;15.978;2022-08-19T09:51:02;7.95;;;5.60;;
68168;SDS011;54981;50.206;15.978;2022-08-19T09:53:29;7.60;;;5.45;;
68168;SDS011;54981;50.206;15.978;2022-08-19T09:55:55;7.47;;;4.85;;
68168;SDS011;54981;50.206;15.978;2022-08-19T09:58:20;8.65;;;5.03;;
68168;SDS011;54981;50.206;15.978;2022-08-19T10:00:47;8.02;;;5.20;;
68168;SDS011;54981;50.206;15.978;2022-08-19T10:03:12;7.07;;;4.93;;
68168;SDS011;54981;50.206;15.978;2022-08-19T10:05:38;7.13;;;5.00;;
68168;SDS011;54981;50.206;15.978;2022-08-19T10:08:13;5.63;;;4.28;;
68168;SDS011;54981;50.206;15.978;2022-08-19T10:10:38;5.90;;;4.40;;
68168;SDS011;54981;50.206;15.978;2022-08-19T10:13:03;8.32;;;5.05;;
68168;SDS011;54981;50.206;15.978;2022-08-19T10:15:29;7.65;;;4.53;;
68168;SDS011;54981;50.206;15.978;2022-08-19T10:17:55;5.63;;;4.40;;
68168;SDS011;54981;50.206;15.978;2022-08-19T10:20:20;7.38;;;4.80;;
68168;SDS011;54981;50.206;15.978;2022-08-19T10:22:47;6.28;;;4.68;;
68168;SDS011;54981;50.206;15.978;2022-08-19T10:25:13;6.15;;;4.88;;
68168;SDS011;54981;50.206;15.978;2022-08-19T10:27:39;6.97;;;5.05;;
68168;SDS011;54981;50.206;15.978;2022-08-19T10:30:04;7.45;;;4.47;;
68168;SDS011;54981;50.206;15.978;2022-08-19T10:32:31;5.97;;;4.43;;
68168;SDS011;54981;50.206;15.978;2022-08-19T10:34:56;8.65;;;4.85;;
68168;SDS011;54981;50.206;15.978;2022-08-19T10:37:22;6.75;;;4.30;;
68168;SDS011;54981;50.206;15.978;2022-08-19T10:39:47;6.57;;;4.10;;
68168;SDS011;54981;50.206;15.978;2022-08-19T10:42:13;7.15;;;4.53;;
68168;SDS011;54981;50.206;15.978;2022-08-19T10:44:38;6.10;;;4.93;;
68168;SDS011;54981;50.206;15.978;2022-08-19T10:47:05;7.35;;;4.25;;
68168;SDS011;54981;50.206;15.978;2022-08-19T10:49:30;7.10;;;5.13;;
68168;SDS011;54981;50.206;15.978;2022-08-19T10:51:57;7.43;;;5.22;;
68168;SDS011;54981;50.206;15.978;2022-08-19T10:54:41;12.65;;;6.82;;
68168;SDS011;54981;50.206;15.978;2022-08-19T10:57:25;7.18;;;5.30;;
68168;SDS011;54981;50.206;15.978;2022-08-19T10:59:55;7.50;;;5.32;;
68168;SDS011;54981;50.206;15.978;2022-08-19T11:02:21;9.27;;;5.20;;
68168;SDS011;54981;50.206;15.978;2022-08-19T11:04:47;6.25;;;4.53;;
68168;SDS011;54981;50.206;15.978;2022-08-19T11:07:14;6.25;;;4.55;;
68168;SDS011;54981;50.206;15.978;2022-08-19T11:09:40;7.28;;;4.90;;
68168;SDS011;54981;50.206;15.978;2022-08-19T11:12:07;6.90;;;4.45;;
68168;SDS011;54981;50.206;15.978;2022-08-19T11:14:34;7.30;;;4.82;;
68168;SDS011;54981;50.206;15.978;2022-08-19T11:17:00;7.63;;;5.50;;
68168;SDS011;54981;50.206;15.978;2022-08-19T11:19:27;10.65;;;5.20;;
68168;SDS011;54981;50.206;15.978;2022-08-19T11:21:52;7.70;;;5.15;;
68168;SDS011;54981;50.206;15.978;2022-08-19T11:24:20;7.07;;;5.13;;
68168;SDS011;54981;50.206;15.978;2022-08-19T11:26:48;7.50;;;5.70;;
68168;SDS011;54981;50.206;15.978;2022-08-19T11:29:16;7.30;;;4.80;;
68168;SDS011;54981;50.206;15.978;2022-08-19T11:31:44;7.82;;;5.55;;
68168;SDS011;54981;50.206;15.978;2022-08-19T11:34:12;6.53;;;5.65;;
68168;SDS011;54981;50.206;15.978;2022-08-19T11:36:42;8.05;;;5.53;;
68168;SDS011;54981;50.206;15.978;2022-08-19T11:39:10;8.00;;;5.63;;
68168;SDS011;54981;50.206;15.978;2022-08-19T11:41:37;6.90;;;5.15;;
68168;SDS011;54981;50.206;15.978;2022-08-19T11:44:03;6.80;;;4.60;;
68168;SDS011;54981;50.206;15.978;2022-08-19T11:46:30;8.95;;;5.30;;
68168;SDS011;54981;50.206;15.978;2022-08-19T11:48:56;8.73;;;5.70;;
68168;SDS011;54981;50.206;15.978;2022-08-19T11:51:24;6.50;;;4.80;;
68168;SDS011;54981;50.206;15.978;2022-08-19T11:53:49;7.70;;;5.45;;
68168;SDS011;54981;50.206;15.978;2022-08-19T11:56:16;7.97;;;5.90;;
68168;SDS011;54981;50.206;15.978;2022-08-19T11:58:42;8.52;;;5.40;;
68168;SDS011;54981;50.206;15.978;2022-08-19T12:01:08;8.05;;;5.13;;
68168;SDS011;54981;50.206;15.978;2022-08-19T12:03:36;7.43;;;4.93;;
68168;SDS011;54981;50.206;15.978;2022-08-19T12:06:03;6.90;;;5.20;;
68168;SDS011;54981;50.206;15.978;2022-08-19T12:08:38;7.07;;;4.95;;
68168;SDS011;54981;50.206;15.978;2022-08-19T12:11:04;8.50;;;5.47;;
68168;SDS011;54981;50.206;15.978;2022-08-19T12:13:32;7.35;;;4.55;;
68168;SDS011;54981;50.206;15.978;2022-08-19T12:15:59;7.20;;;4.72;;
68168;SDS011;54981;50.206;15.978;2022-08-19T12:18:25;10.25;;;5.18;;
68168;SDS011;54981;50.206;15.978;2022-08-19T12:20:51;6.70;;;4.63;;
68168;SDS011;54981;50.206;15.978;2022-08-19T12:23:18;7.35;;;4.82;;
68168;SDS011;54981;50.206;15.978;2022-08-19T12:25:43;6.93;;;4.82;;
68168;SDS011;54981;50.206;15.978;2022-08-19T12:28:14;7.18;;;5.00;;
68168;SDS011;54981;50.206;15.978;2022-08-19T12:30:40;7.65;;;5.05;;
68168;SDS011;54981;50.206;15.978;2022-08-19T12:33:06;8.88;;;4.00;;
68168;SDS011;54981;50.206;15.978;2022-08-19T12:35:32;6.72;;;4.10;;
68168;SDS011;54981;50.206;15.978;2022-08-19T12:37:58;6.03;;;4.63;;
68168;SDS011;54981;50.206;15.978;2022-08-19T12:40:24;6.90;;;4.47;;
68168;SDS011;54981;50.206;15.978;2022-08-19T12:42:50;5.40;;;3.90;;
68168;SDS011;54981;50.206;15.978;2022-08-19T12:45:16;6.82;;;4.35;;
68168;SDS011;54981;50.206;15.978;2022-08-19T12:47:41;6.50;;;4.40;;
68168;SDS011;54981;50.206;15.978;2022-08-19T12:50:07;7.68;;;4.72;;
68168;SDS011;54981;50.206;15.978;2022-08-19T12:52:33;6.05;;;4.60;;
68168;SDS011;54981;50.206;15.978;2022-08-19T12:55:02;8.32;;;4.80;;
68168;SDS011;54981;50.206;15.978;2022-08-19T12:57:30;6.32;;;4.75;;
68168;SDS011;54981;50.206;15.978;2022-08-19T12:59:58;5.63;;;4.47;;
68168;SDS011;54981;50.206;15.978;2022-08-19T13:02:37;7.03;;;4.60;;
68168;SDS011;54981;50.206;15.978;2022-08-19T13:05:03;6.18;;;4.55;;
68168;SDS011;54981;50.206;15.978;2022-08-19T13:07:31;5.45;;;4.47;;
68168;SDS011;54981;50.206;15.978;2022-08-19T13:09:57;6.63;;;4.60;;
68168;SDS011;54981;50.206;15.978;2022-08-19T13:12:22;6.78;;;4.75;;
68168;SDS011;54981;50.206;15.978;2022-08-19T13:14:51;5.65;;;4.18;;
68168;SDS011;54981;50.206;15.978;2022-08-19T13:17:17;6.97;;;5.45;;
68168;SDS011;54981;50.206;15.978;2022-08-19T13:19:43;6.85;;;4.43;;
68168;SDS011;54981;50.206;15.978;2022-08-19T13:22:08;7.10;;;3.90;;
68168;SDS011;54981;50.206;15.978;2022-08-19T13:24:33;6.28;;;5.03;;
68168;SDS011;54981;50.206;15.978;2022-08-19T13:27:00;5.38;;;3.97;;
68168;SDS011;54981;50.206;15.978;2022-08-19T13:29:25;5.75;;;4.00;;
68168;SDS011;54981;50.206;15.978;2022-08-19T13:32:09;6.68;;;4.22;;
68168;SDS011;54981;50.206;15.978;2022-08-19T13:34:53;6.97;;;4.43;;
68168;SDS011;54981;50.206;15.978;2022-08-19T13:37:18;6.00;;;4.17;;
68168;SDS011;54981;50.206;15.978;2022-08-19T13:40:04;6.30;;;4.40;;
68168;SDS011;54981;50.206;15.978;2022-08-19T13:42:30;7.68;;;4.90;;
68168;SDS011;54981;50.206;15.978;2022-08-19T13:44:56;7.32;;;3.92;;
68168;SDS011;54981;50.206;15.978;2022-08-19T13:47:21;6.30;;;4.53;;
68168;SDS011;54981;50.206;15.978;2022-08-19T13:49:46;6.37;;;4.30;;
68168;SDS011;54981;50.206;15.978;2022-08-19T13:52:12;5.72;;;4.28;;
68168;SDS011;54981;50.206;15.978;2022-08-19T13:54:38;6.93;;;4.70;;
68168;SDS011;54981;50.206;15.978;2022-08-19T13:57:03;6.43;;;4.17;;
68168;SDS011;54981;50.206;15.978;2022-08-19T13:59:28;6.97;;;4.47;;
68168;SDS011;54981;50.206;15.978;2022-08-19T14:01:57;8.18;;;4.57;;
68168;SDS011;54981;50.206;15.978;2022-08-19T14:04:24;7.15;;;4.22;;
68168;SDS011;54981;50.206;15.978;2022-08-19T14:06:49;6.88;;;4.38;;
68168;SDS011;54981;50.206;15.978;2022-08-19T14:09:14;6.43;;;4.70;;
68168;SDS011;54981;50.206;15.978;2022-08-19T14:11:40;8.48;;;4.50;;
68168;SDS011;54981;50.206;15.978;2022-08-19T14:14:05;7.53;;;4.90;;
68168;SDS011;54981;50.206;15.978;2022-08-19T14:16:31;9.18;;;4.63;;
68168;SDS011;54981;50.206;15.978;2022-08-19T14:18:56;6.32;;;4.72;;
68168;SDS011;54981;50.206;15.978;2022-08-19T14:21:22;7.03;;;4.90;;
68168;SDS011;54981;50.206;15.978;2022-08-19T14:23:49;7.15;;;4.95;;
68168;SDS011;54981;50.206;15.978;2022-08-19T14:26:15;7.55;;;5.00;;
68168;SDS011;54981;50.206;15.978;2022-08-19T14:28:42;6.68;;;5.13;;
68168;SDS011;54981;50.206;15.978;2022-08-19T14:31:09;8.40;;;4.38;;
68168;SDS011;54981;50.206;15.978;2022-08-19T14:33:35;5.97;;;4.75;;
68168;SDS011;54981;50.206;15.978;2022-08-19T14:36:01;7.68;;;5.25;;
68168;SDS011;54981;50.206;15.978;2022-08-19T14:38:27;6.18;;;4.40;;
68168;SDS011;54981;50.206;15.978;2022-08-19T14:40:56;6.35;;;4.75;;
68168;SDS011;54981;50.206;15.978;2022-08-19T14:43:30;6.95;;;4.88;;
68168;SDS011;54981;50.206;15.978;2022-08-19T14:45:55;6.78;;;4.70;;
68168;SDS011;54981;50.206;15.978;2022-08-19T14:48:21;6.50;;;4.43;;
68168;SDS011;54981;50.206;15.978;2022-08-19T14:50:47;7.22;;;4.32;;
68168;SDS011;54981;50.206;15.978;2022-08-19T14:53:12;7.13;;;4.70;;
68168;SDS011;54981;50.206;15.978;2022-08-19T14:55:40;8.82;;;4.72;;
68168;SDS011;54981;50.206;15.978;2022-08-19T14:58:10;7.20;;;5.10;;
68168;SDS011;54981;50.206;15.978;2022-08-19T15:00:36;5.13;;;2.88;;
68168;SDS011;54981;50.206;15.978;2022-08-19T15:03:01;6.05;;;3.35;;
68168;SDS011;54981;50.206;15.978;2022-08-19T15:05:26;9.57;;;2.97;;